Time;durP1;ratioP1;P1;durP2;ratioP2;P2;SDS_P1;SDS_P2;PMS_P1;PMS_P2;Temp;Humidity;BMP_temperature;BMP_pressure;BME280_temperature;BME280_humidity;BME280_pressure;Samples;Min_cycle;Max_cycle;Signal;HPM_P1;HPM_P2
2023/01/05 00:00:35;;;;;;;6.55;2.10;;;16.00;87.40;;;;;;4205078;28;20051;-62
2023/01/05 00:03:16;;;;;;;14.50;3.00;;;16.10;86.20;;;;;;4209486;28;20039;-62
2023/01/05 00:06:01;;;;;;;10.40;2.83;;;16.10;85.90;;;;;;4209681;28;20600;-61
2023/01/05 00:08:43;;;;;;;10.98;3.10;;;16.20;85.60;;;;;;4209859;28;20063;-62
2023/01/05 00:23:21;;;;;;;9.90;2.70;;;16.20;85.60;;;;;;4209145;28;20169;-62
2023/01/05 00:26:03;;;;;;;11.68;3.38;;;16.30;85.30;;;;;;4209282;28;20055;-62
2023/01/05 00:28:44;;;;;;;14.20;2.70;;;16.30;85.10;;;;;;4206023;28;20059;-62
2023/01/05 00:31:24;;;;;;;11.45;2.40;;;16.40;85.00;;;;;;4176147;28;20052;-62
2023/01/05 00:34:07;;;;;;;10.80;3.83;;;16.30;84.90;;;;;;4175772;28;20135;-61
2023/01/05 00:36:48;;;;;;;12.73;3.35;;;16.30;85.00;;;;;;4163463;28;20056;-61
2023/01/05 00:39:28;;;;;;;9.90;2.15;;;16.30;85.00;;;;;;4188143;28;20051;-61
2023/01/05 00:42:11;;;;;;;12.13;3.00;;;16.30;85.20;;;;;;4208870;28;20051;-61
2023/01/05 00:44:52;;;;;;;14.13;2.60;;;16.30;85.20;;;;;;4205935;28;20055;-62
2023/01/05 00:47:32;;;;;;;9.32;2.38;;;16.30;85.00;;;;;;4192233;28;20133;-62
2023/01/05 00:50:16;;;;;;;10.10;2.65;;;16.30;85.00;;;;;;4190641;28;20101;-62
2023/01/05 00:52:56;;;;;;;6.97;2.38;;;16.30;85.00;;;;;;4208808;28;20124;-61
2023/01/05 00:55:37;;;;;;;12.60;2.65;;;16.30;85.20;;;;;;4208490;28;20137;-62
2023/01/05 00:58:20;;;;;;;10.73;2.58;;;16.30;85.30;;;;;;4196112;28;20555;-61
2023/01/05 01:01:01;;;;;;;11.00;2.80;;;16.30;85.00;;;;;;4208085;28;20047;-61
2023/01/05 01:03:43;;;;;;;12.15;3.10;;;16.40;84.90;;;;;;4169575;28;20510;-62
2023/01/05 01:06:25;;;;;;;9.65;2.67;;;16.40;84.80;;;;;;4191828;28;20098;-61
2023/01/05 01:09:05;;;;;;;9.35;2.78;;;16.40;84.80;;;;;;4192073;28;20047;-62
2023/01/05 01:11:46;;;;;;;11.38;2.90;;;16.40;85.60;;;;;;4191370;28;20423;-61
2023/01/05 01:14:29;;;;;;;15.23;3.28;;;16.40;84.90;;;;;;4202985;28;20108;-61
2023/01/05 01:17:10;;;;;;;13.18;3.08;;;16.40;85.00;;;;;;4208789;28;20059;-62
2023/01/05 01:19:51;;;;;;;12.23;3.35;;;16.40;84.70;;;;;;4191985;28;20051;-62
2023/01/05 01:22:32;;;;;;;14.95;3.00;;;16.40;84.60;;;;;;4192276;28;20047;-62
2023/01/05 01:25:13;;;;;;;12.63;3.25;;;16.40;84.50;;;;;;4193302;28;20063;-62
2023/01/05 01:27:54;;;;;;;16.43;3.40;;;16.40;84.80;;;;;;4208153;28;20505;-62
2023/01/05 01:30:38;;;;;;;13.32;3.17;;;16.40;84.70;;;;;;4207674;28;20795;-62
2023/01/05 01:33:19;;;;;;;22.77;4.25;;;16.50;84.50;;;;;;4204958;28;20091;-61
2023/01/05 01:36:03;;;;;;;15.60;3.08;;;16.50;84.40;;;;;;4191727;28;20087;-62
2023/01/05 01:38:44;;;;;;;10.88;3.22;;;16.40;84.30;;;;;;4195221;28;20398;-62
2023/01/05 01:41:25;;;;;;;14.38;2.60;;;16.50;84.40;;;;;;4196059;28;20055;-62
2023/01/05 01:44:40;;;;;;;15.43;2.85;;;16.40;84.30;;;;;;4197791;28;20052;-62
2023/01/05 01:47:38;;;;;;;15.90;3.70;;;16.40;84.50;;;;;;4191735;28;20051;-62
2023/01/05 01:50:24;;;;;;;12.73;3.40;;;16.40;84.90;;;;;;4191109;28;20051;-61
2023/01/05 01:53:08;;;;;;;13.80;3.22;;;16.40;84.90;;;;;;4206636;28;20047;-61
2023/01/05 01:55:49;;;;;;;15.70;3.65;;;16.40;84.60;;;;;;4207947;28;20059;-61
2023/01/05 01:58:32;;;;;;;16.50;3.75;;;16.50;84.40;;;;;;4207739;28;20059;-61
2023/01/05 02:01:13;;;;;;;14.23;3.40;;;16.40;84.30;;;;;;4182354;28;20095;-60
2023/01/05 02:03:56;;;;;;;9.45;2.50;;;16.40;84.40;;;;;;4178556;28;20047;-60
2023/01/05 02:06:37;;;;;;;9.63;2.80;;;16.40;84.40;;;;;;4192394;28;20522;-62
2023/01/05 02:09:19;;;;;;;11.20;2.45;;;16.50;84.40;;;;;;4195078;28;20097;-61
2023/01/05 02:12:08;;;;;;;13.38;3.15;;;16.50;84.30;;;;;;4169676;28;20104;-61
2023/01/05 02:14:59;;;;;;;10.32;3.35;;;16.40;84.30;;;;;;4198843;28;20051;-61
2023/01/05 02:17:50;;;;;;;17.50;3.40;;;16.40;84.10;;;;;;4211194;28;20148;-61
2023/01/05 02:20:55;;;;;;;17.45;4.30;;;16.40;84.20;;;;;;4222405;28;20478;-61
2023/01/05 02:24:01;;;;;;;13.95;3.95;;;16.40;84.30;;;;;;4178207;28;20155;-61
2023/01/05 02:27:02;;;;;;;10.50;2.53;;;16.40;84.20;;;;;;4183295;28;20387;-61
2023/01/05 02:30:26;;;;;;;16.02;3.42;;;16.50;84.20;;;;;;4177781;28;20059;-61
2023/01/05 02:33:22;;;;;;;15.63;3.28;;;16.50;84.00;;;;;;4176641;28;20404;-62
2023/01/05 02:36:09;;;;;;;19.52;3.92;;;16.50;84.10;;;;;;4188165;28;20411;-62
2023/01/05 02:38:57;;;;;;;12.40;2.50;;;16.50;84.90;;;;;;4188832;28;20537;-62
2023/01/05 02:41:45;;;;;;;13.57;3.33;;;16.50;84.00;;;;;;4188526;28;20479;-62
2023/01/05 02:44:29;;;;;;;11.68;3.13;;;16.40;84.00;;;;;;4188445;28;20059;-61
2023/01/05 02:47:38;;;;;;;11.88;2.83;;;16.40;84.30;;;;;;4184334;28;20055;-62
2023/01/05 02:50:26;;;;;;;12.07;2.08;;;16.40;84.20;;;;;;4221681;28;20192;-62
2023/01/05 02:53:14;;;;;;;13.73;2.65;;;16.40;84.60;;;;;;4210721;28;20046;-61
2023/01/05 02:56:00;;;;;;;14.40;3.03;;;16.40;84.60;;;;;;4186183;28;20048;-61
2023/01/05 02:58:48;;;;;;;;;;;16.50;84.30;;;;;;4182025;28;20064;-61
2023/01/05 03:01:32;;;;;;;13.70;2.53;;;16.50;84.20;;;;;;4193110;28;19935;-61
2023/01/05 03:04:18;;;;;;;15.77;3.53;;;16.50;84.00;;;;;;4193641;28;20127;-62
2023/01/05 03:07:05;;;;;;;16.13;3.20;;;16.50;83.80;;;;;;4176237;28;20060;-61
2023/01/05 03:09:47;;;;;;;12.38;2.45;;;16.50;84.00;;;;;;4177065;28;20059;-62
2023/01/05 03:15:38;;;;;;;12.77;2.67;;;16.60;83.70;;;;;;4197648;28;20100;-62
2023/01/05 03:18:21;;;;;;;12.45;3.30;;;16.60;83.50;;;;;;4210162;28;20177;-62
2023/01/05 03:21:05;;;;;;;11.45;3.10;;;16.60;83.60;;;;;;4210217;28;20066;-62
2023/01/05 03:35:54;;;;;;;15.90;3.05;;;16.40;84.50;;;;;;4216285;28;20051;-62
2023/01/05 03:38:39;;;;;;;14.00;3.30;;;16.40;84.40;;;;;;4197532;28;20178;-62
2023/01/05 03:41:25;;;;;;;15.80;3.80;;;16.50;84.30;;;;;;4197590;28;20047;-61
2023/01/05 03:44:10;;;;;;;13.82;4.00;;;16.50;84.10;;;;;;4172295;28;20590;-61
2023/01/05 03:46:52;;;;;;;14.18;2.80;;;16.50;84.10;;;;;;4180169;28;20059;-62
2023/01/05 03:49:33;;;;;;;13.48;3.17;;;16.50;84.20;;;;;;4180288;28;20403;-61
2023/01/05 03:52:15;;;;;;;18.25;2.90;;;16.50;84.40;;;;;;4194254;28;20178;-62
2023/01/05 03:54:56;;;;;;;15.65;3.22;;;16.50;84.40;;;;;;4197047;28;20481;-62
2023/01/05 03:57:38;;;;;;;14.97;3.40;;;16.50;84.20;;;;;;4204369;28;20098;-62
2023/01/05 04:00:19;;;;;;;15.25;3.13;;;16.60;83.90;;;;;;4192528;28;20055;-61
2023/01/05 04:03:10;;;;;;;15.13;3.22;;;16.60;83.70;;;;;;4175596;28;20064;-62
2023/01/05 04:05:52;;;;;;;12.85;2.80;;;16.50;83.70;;;;;;4163549;28;20051;-61
2023/01/05 04:08:33;;;;;;;11.80;3.30;;;16.50;83.80;;;;;;4175128;28;20060;-61
2023/01/05 04:11:17;;;;;;;13.98;3.20;;;16.50;84.10;;;;;;4173309;28;20105;-62
2023/01/05 04:14:08;;;;;;;11.07;2.90;;;16.40;84.20;;;;;;4191688;28;20502;-61
2023/01/05 04:16:49;;;;;;;15.93;3.05;;;16.40;84.30;;;;;;4191941;28;20058;-62
2023/01/05 04:19:34;;;;;;;11.70;2.67;;;16.50;84.40;;;;;;4191887;28;20053;-61
2023/01/05 04:22:15;;;;;;;18.85;4.03;;;16.50;84.20;;;;;;4175550;28;20060;-61
2023/01/05 04:24:57;;;;;;;18.27;3.60;;;16.60;84.00;;;;;;4186377;28;20518;-61
2023/01/05 04:27:41;;;;;;;18.17;3.40;;;16.60;83.90;;;;;;4182992;28;20141;-60
2023/01/05 04:30:24;;;;;;;19.67;3.88;;;16.60;83.90;;;;;;4204980;28;20151;-61
2023/01/05 04:33:05;;;;;;;13.90;3.00;;;16.60;83.80;;;;;;4196349;28;20073;-61
2023/01/05 04:35:48;;;;;;;11.95;3.42;;;16.60;83.60;;;;;;4196888;28;20133;-61
2023/01/05 04:38:28;;;;;;;17.15;3.20;;;16.60;83.70;;;;;;4196716;28;20173;-61
2023/01/05 04:41:10;;;;;;;11.73;2.42;;;16.60;83.80;;;;;;4185388;28;20141;-61
2023/01/05 04:43:53;;;;;;;16.40;3.13;;;16.60;83.80;;;;;;4179947;28;20052;-61
2023/01/05 04:46:35;;;;;;;11.27;3.15;;;16.60;83.40;;;;;;4192265;28;20063;-61
2023/01/05 04:49:17;;;;;;;12.45;2.90;;;16.60;83.20;;;;;;4179989;28;20121;-61
2023/01/05 04:52:01;;;;;;;12.02;3.03;;;16.60;83.30;;;;;;4194090;28;20051;-61
2023/01/05 04:54:45;;;;;;;11.05;3.10;;;16.60;83.50;;;;;;4202987;28;20117;-61
2023/01/05 04:57:26;;;;;;;16.63;3.60;;;16.50;83.80;;;;;;4179518;28;20055;-61
2023/01/05 05:00:10;;;;;;;17.20;3.38;;;16.60;83.80;;;;;;4206089;28;20055;-61
2023/01/05 05:02:52;;;;;;;15.02;2.28;;;16.60;83.40;;;;;;4196262;28;20449;-61
2023/01/05 05:05:33;;;;;;;14.60;2.85;;;16.60;83.50;;;;;;4195815;28;20047;-61
2023/01/05 05:08:14;;;;;;;;;;;16.60;83.60;;;;;;4196502;28;20062;-61
2023/01/05 05:10:56;;;;;;;18.30;4.00;;;16.60;83.60;;;;;;4208457;28;19931;-61
2023/01/05 05:13:38;;;;;;;12.43;4.15;;;16.60;83.60;;;;;;4191358;28;20502;-61
2023/01/05 05:16:19;;;;;;;16.08;3.58;;;16.50;83.50;;;;;;4202089;28;20059;-62
2023/01/05 05:19:02;;;;;;;14.57;2.85;;;16.50;84.50;;;;;;4178889;28;20052;-61
2023/01/05 05:21:43;;;;;;;14.20;3.42;;;16.50;84.00;;;;;;4162531;28;20056;-61
2023/01/05 05:24:24;;;;;;;15.98;2.65;;;16.50;84.10;;;;;;4185423;28;20557;-61
2023/01/05 05:27:06;;;;;;;;;;;16.50;83.70;;;;;;4163258;28;20052;-61
2023/01/05 05:29:47;;;;;;;12.27;3.47;;;16.60;83.70;;;;;;4181263;28;19973;-61
2023/01/05 05:32:28;;;;;;;15.20;3.78;;;16.60;83.70;;;;;;4185717;28;20444;-61
2023/01/05 05:35:10;;;;;;;16.53;4.10;;;16.60;83.50;;;;;;4191676;28;20406;-61
2023/01/05 05:37:51;;;;;;;17.92;3.20;;;16.60;83.40;;;;;;4191400;28;20060;-61
2023/01/05 05:40:36;;;;;;;9.93;3.33;;;16.60;83.30;;;;;;4204408;28;20432;-62
2023/01/05 05:43:17;;;;;;;16.23;3.53;;;16.60;83.20;;;;;;4208360;28;20097;-61
2023/01/05 05:45:58;;;;;;;10.57;2.85;;;16.60;83.10;;;;;;4196005;28;20047;-61
2023/01/05 05:48:39;;;;;;;13.43;3.27;;;16.50;83.20;;;;;;4198395;28;20051;-61
2023/01/05 05:51:21;;;;;;;15.40;3.35;;;16.50;83.50;;;;;;4175310;28;20294;-60
2023/01/05 05:54:02;;;;;;;17.38;3.80;;;16.50;83.90;;;;;;4175260;28;20052;-61
2023/01/05 05:56:43;;;;;;;11.60;3.13;;;16.50;84.00;;;;;;4175196;28;20064;-61
2023/01/05 05:59:24;;;;;;;13.07;3.15;;;16.50;83.70;;;;;;4184287;28;20170;-61
2023/01/05 06:02:05;;;;;;;11.80;2.70;;;16.60;83.60;;;;;;4207525;28;20108;-60
2023/01/05 06:04:47;;;;;;;11.45;3.58;;;16.60;83.40;;;;;;4199046;28;20055;-61
2023/01/05 06:07:29;;;;;;;15.23;3.35;;;16.60;83.40;;;;;;4193642;28;20047;-61
2023/01/05 06:10:10;;;;;;;14.93;3.65;;;16.60;83.30;;;;;;4207754;28;20043;-60
2023/01/05 06:12:53;;;;;;;14.38;3.17;;;16.60;83.20;;;;;;4207878;28;20051;-61
2023/01/05 06:15:34;;;;;;;12.73;2.85;;;16.50;83.30;;;;;;4207847;28;20455;-60
2023/01/05 06:18:15;;;;;;;15.43;3.70;;;16.50;83.30;;;;;;4207488;28;20092;-61
2023/01/05 06:20:56;;;;;;;15.85;3.40;;;16.40;83.40;;;;;;4197966;28;20055;-61
2023/01/05 06:23:42;;;;;;;15.23;3.15;;;16.40;84.10;;;;;;4191227;28;20142;-61
2023/01/05 06:26:23;;;;;;;12.13;2.90;;;16.40;84.20;;;;;;4191089;28;20059;-61
2023/01/05 06:29:04;;;;;;;11.60;2.53;;;16.50;84.20;;;;;;4191051;28;20403;-61
2023/01/05 06:31:45;;;;;;;15.65;3.97;;;16.50;84.10;;;;;;4176203;28;20582;-61
2023/01/05 06:34:26;;;;;;;20.42;4.05;;;16.50;83.90;;;;;;4178386;28;20043;-62
2023/01/05 06:37:07;;;;;;;11.47;3.77;;;16.60;83.80;;;;;;4190735;28;20163;-61
2023/01/05 06:39:49;;;;;;;12.32;2.45;;;16.60;83.60;;;;;;4191028;28;20095;-62
2023/01/05 06:42:30;;;;;;;11.25;2.90;;;16.60;83.30;;;;;;4198011;28;20190;-62
2023/01/05 06:45:14;;;;;;;13.10;3.22;;;16.60;83.40;;;;;;4207491;28;20105;-62
2023/01/05 06:47:56;;;;;;;11.88;2.03;;;16.70;83.30;;;;;;4207347;28;20058;-61
2023/01/05 06:50:37;;;;;;;10.93;3.30;;;16.70;83.40;;;;;;4210438;28;20055;-61
2023/01/05 06:53:18;;;;;;;16.65;3.45;;;16.60;83.30;;;;;;4198485;28;20051;-61
2023/01/05 06:56:00;;;;;;;12.13;3.40;;;16.60;83.30;;;;;;4163393;28;20063;-62
2023/01/05 06:58:41;;;;;;;11.23;2.55;;;16.50;83.70;;;;;;4177084;28;20130;-61
2023/01/05 07:01:22;;;;;;;14.52;3.75;;;16.50;84.00;;;;;;4177153;28;20068;-61
2023/01/05 07:04:03;;;;;;;16.48;3.70;;;16.40;84.10;;;;;;4178757;28;20118;-61
2023/01/05 07:06:44;;;;;;;14.18;2.90;;;16.40;84.30;;;;;;4201996;28;20050;-61
2023/01/05 07:09:25;;;;;;;11.60;2.63;;;16.40;84.20;;;;;;4210463;28;20139;-62
2023/01/05 07:12:08;;;;;;;16.83;3.33;;;16.50;84.30;;;;;;4191432;28;20072;-62
2023/01/05 07:14:50;;;;;;;12.05;3.47;;;16.60;84.40;;;;;;4176585;28;20137;-62
2023/01/05 07:17:37;;;;;;;15.35;4.07;;;16.60;84.40;;;;;;4186510;28;20043;-62
2023/01/05 07:20:18;;;;;;;17.05;3.83;;;16.70;84.20;;;;;;4201976;28;20058;-61
2023/01/05 07:22:59;;;;;;;13.82;3.15;;;16.70;83.90;;;;;;4193273;28;20060;-62
2023/01/05 07:25:40;;;;;;;17.98;4.15;;;16.70;83.70;;;;;;4185661;28;20130;-63
2023/01/05 07:28:22;;;;;;;13.98;2.97;;;16.70;83.60;;;;;;4192892;28;20047;-62
2023/01/05 07:31:03;;;;;;;13.60;3.38;;;16.70;83.70;;;;;;4206038;28;20085;-61
2023/01/05 07:33:44;;;;;;;18.50;4.15;;;16.60;83.40;;;;;;4209645;28;20117;-62
2023/01/05 07:36:25;;;;;;;10.23;3.03;;;16.60;83.90;;;;;;4209773;28;20132;-62
2023/01/05 07:39:06;;;;;;;14.65;3.17;;;16.50;84.10;;;;;;4209792;28;20074;-62
2023/01/05 07:41:47;;;;;;;14.18;3.33;;;16.50;84.20;;;;;;4209546;28;20173;-63
2023/01/05 07:44:30;;;;;;;20.48;3.85;;;16.40;84.30;;;;;;4197243;28;20055;-62
2023/01/05 07:47:11;;;;;;;16.55;3.20;;;16.40;84.60;;;;;;4209689;28;20055;-63
2023/01/05 07:49:52;;;;;;;11.60;2.70;;;16.30;84.90;;;;;;4209857;28;20181;-62
2023/01/05 07:52:33;;;;;;;15.65;2.58;;;16.20;85.20;;;;;;4210050;28;20063;-62
2023/01/05 07:55:14;;;;;;;12.18;3.17;;;16.20;85.60;;;;;;4209474;28;20403;-61
2023/01/05 07:57:55;;;;;;;12.65;3.30;;;16.30;85.60;;;;;;4209890;28;20055;-63
2023/01/05 08:00:37;;;;;;;13.90;2.70;;;16.30;85.40;;;;;;4209266;28;20059;-62
2023/01/05 08:03:18;;;;;;;9.65;2.25;;;16.40;85.20;;;;;;4209586;28;20402;-62
2023/01/05 08:06:04;;;;;;;14.07;2.27;;;16.40;85.00;;;;;;4197329;28;20081;-61
2023/01/05 08:08:45;;;;;;;17.60;3.70;;;16.50;84.70;;;;;;4209508;28;20285;-63
2023/01/05 08:11:26;;;;;;;13.63;2.28;;;16.60;85.60;;;;;;4209404;28;20050;-64
2023/01/05 08:14:07;;;;;;;16.60;3.70;;;16.60;84.50;;;;;;4176106;28;20055;-63
2023/01/05 08:16:49;;;;;;;10.38;2.50;;;16.60;85.10;;;;;;4176163;28;20100;-63
2023/01/05 08:19:30;;;;;;;10.80;2.70;;;16.60;84.00;;;;;;4176112;28;20051;-63
2023/01/05 08:22:12;;;;;;;17.98;3.20;;;16.60;83.90;;;;;;4176110;28;20094;-63
2023/01/05 08:24:53;;;;;;;14.35;2.50;;;16.60;84.20;;;;;;4175331;28;20506;-63
2023/01/05 08:27:34;;;;;;;16.80;3.60;;;16.50;84.50;;;;;;4175913;28;20048;-64
2023/01/05 08:30:15;;;;;;;13.05;2.80;;;16.60;84.30;;;;;;4200744;28;20117;-63
2023/01/05 08:32:58;;;;;;;13.93;3.08;;;16.60;84.30;;;;;;4208764;28;20156;-62
2023/01/05 08:35:43;;;;;;;12.02;3.58;;;16.60;84.10;;;;;;4208664;28;20054;-63
2023/01/05 08:38:24;;;;;;;13.20;3.08;;;16.60;83.90;;;;;;4207153;28;20059;-63
2023/01/05 08:41:05;;;;;;;16.25;2.72;;;16.60;83.90;;;;;;4209031;28;20047;-65
2023/01/05 08:43:50;;;;;;;12.15;2.65;;;16.60;84.10;;;;;;4208829;28;20059;-63
2023/01/05 08:46:33;;;;;;;11.68;2.67;;;16.50;84.20;;;;;;4200809;28;20051;-63
2023/01/05 08:49:15;;;;;;;8.90;2.60;;;16.50;84.20;;;;;;4191690;28;20121;-64
2023/01/05 08:51:56;;;;;;;10.05;2.78;;;16.40;84.20;;;;;;4179870;28;20502;-63
2023/01/05 08:54:37;;;;;;;12.77;3.00;;;16.30;84.60;;;;;;4179479;28;20145;-63
2023/01/05 08:57:18;;;;;;;10.83;3.10;;;16.30;84.90;;;;;;4190690;28;20079;-63
2023/01/05 08:59:59;;;;;;;10.43;2.47;;;16.20;85.00;;;;;;4191016;28;20335;-64
2023/01/05 09:02:40;;;;;;;7.70;2.10;;;16.20;85.20;;;;;;4191115;28;20499;-63
2023/01/05 09:05:22;;;;;;;8.90;2.03;;;16.10;85.30;;;;;;4191173;28;20051;-63
2023/01/05 09:08:03;;;;;;;9.27;2.63;;;16.10;85.50;;;;;;4191170;28;20127;-63
2023/01/05 09:10:44;;;;;;;11.40;2.50;;;16.00;85.50;;;;;;4191532;28;20117;-62
2023/01/05 09:13:25;;;;;;;12.32;3.80;;;16.00;85.70;;;;;;4192097;28;20055;-62
2023/01/05 09:16:08;;;;;;;11.27;2.92;;;16.00;85.70;;;;;;4191811;28;20506;-62
2023/01/05 09:18:50;;;;;;;10.65;2.45;;;16.00;86.30;;;;;;4191833;28;20066;-62
2023/01/05 09:21:32;;;;;;;17.25;3.20;;;16.00;87.40;;;;;;4191873;28;20054;-63
2023/01/05 09:24:13;;;;;;;11.50;3.40;;;16.10;86.30;;;;;;4191086;28;20125;-62
2023/01/05 09:26:54;;;;;;;15.40;3.80;;;16.20;86.00;;;;;;4191955;28;20052;-63
2023/01/05 09:29:34;;;;;;;11.10;3.03;;;16.30;85.70;;;;;;4179447;28;20062;-63
2023/01/05 09:32:15;;;;;;;10.73;3.40;;;16.40;85.60;;;;;;4191827;28;20498;-63
2023/01/05 09:34:56;;;;;;;19.85;3.65;;;16.40;85.10;;;;;;4191424;28;20094;-63
2023/01/05 09:37:38;;;;;;;16.77;2.95;;;16.50;84.70;;;;;;4191552;28;20063;-62
2023/01/05 09:40:19;;;;;;;12.38;2.80;;;16.50;84.40;;;;;;4191289;28;20056;-63
2023/01/05 09:43:01;;;;;;;14.07;3.25;;;16.50;84.40;;;;;;4191322;28;20047;-63
2023/01/05 09:45:44;;;;;;;11.70;2.53;;;16.50;84.40;;;;;;4179274;28;20057;-63
2023/01/05 09:48:26;;;;;;;13.20;3.88;;;16.50;84.40;;;;;;4191757;28;20174;-63
2023/01/05 09:51:08;;;;;;;13.35;2.90;;;16.50;84.50;;;;;;4191524;28;20400;-63
2023/01/05 09:53:51;;;;;;;13.27;2.85;;;16.40;84.60;;;;;;4191567;28;20383;-63
2023/01/05 09:56:34;;;;;;;18.90;4.10;;;16.40;85.60;;;;;;4191674;28;20055;-63
2023/01/05 09:59:37;;;;;;;11.43;2.78;;;16.50;84.70;;;;;;4191274;28;20392;-63
2023/01/05 10:02:25;;;;;;;9.82;2.63;;;16.50;84.70;;;;;;4191759;28;20129;-63
2023/01/05 10:05:07;;;;;;;8.80;2.25;;;16.50;84.70;;;;;;4191837;28;20047;-62
2023/01/05 10:07:52;;;;;;;13.88;3.30;;;16.50;84.60;;;;;;4191174;28;20063;-63
2023/01/05 10:10:44;;;;;;;11.68;2.38;;;16.50;84.30;;;;;;4191462;28;20051;-62
2023/01/05 10:13:30;;;;;;;6.57;1.67;;;16.50;84.10;;;;;;4191302;28;20419;-63
2023/01/05 10:16:16;;;;;;;9.18;2.30;;;16.50;84.40;;;;;;4191284;28;20043;-63
2023/01/05 10:18:58;;;;;;;8.98;1.83;;;16.60;84.20;;;;;;4191472;28;20052;-62
2023/01/05 10:21:49;;;;;;;6.85;2.03;;;16.60;84.00;;;;;;4191362;28;20056;-63
2023/01/05 10:24:43;;;;;;;5.32;2.25;;;16.60;83.90;;;;;;4194467;28;20055;-63
2023/01/05 10:27:28;;;;;;;8.60;3.30;;;16.60;83.80;;;;;;4194382;28;20063;-63
2023/01/05 10:30:21;;;;;;;11.90;3.70;;;16.60;83.80;;;;;;4194506;28;20114;-63
2023/01/05 10:33:10;;;;;;;5.07;1.77;;;16.50;83.80;;;;;;4193978;28;20066;-63
2023/01/05 10:36:30;;;;;;;6.25;1.38;;;16.60;84.30;;;;;;4194189;28;20051;-62
2023/01/05 10:39:47;;;;;;;7.32;1.45;;;16.60;84.80;;;;;;4194194;28;20043;-62
2023/01/05 10:42:49;;;;;;;5.05;1.55;;;16.60;83.60;;;;;;4181770;28;20498;-62
2023/01/05 10:45:31;;;;;;;13.52;2.25;;;16.70;83.60;;;;;;4193245;28;20051;-63
2023/01/05 10:48:15;;;;;;;6.47;1.75;;;16.70;83.60;;;;;;4193543;28;20117;-62
2023/01/05 10:51:00;;;;;;;5.72;1.48;;;16.60;83.40;;;;;;4193888;28;20051;-62
2023/01/05 10:53:42;;;;;;;6.47;1.70;;;16.60;83.60;;;;;;4193878;28;20079;-62
2023/01/05 10:56:27;;;;;;;4.07;1.20;;;16.60;83.60;;;;;;4194155;28;20179;-63
2023/01/05 10:59:14;;;;;;;7.18;1.23;;;16.50;83.80;;;;;;4193825;28;20105;-62
2023/01/05 11:01:55;;;;;;;7.22;1.35;;;16.50;83.80;;;;;;4195099;28;20051;-62
2023/01/05 11:04:37;;;;;;;9.38;2.28;;;16.40;84.20;;;;;;4175444;28;20430;-62
2023/01/05 11:07:18;;;;;;;9.25;2.65;;;16.40;84.60;;;;;;4183764;28;20067;-61
2023/01/05 11:09:59;;;;;;;11.50;2.58;;;16.50;84.90;;;;;;4193755;28;20050;-62
2023/01/05 11:12:40;;;;;;;14.50;2.50;;;16.50;84.60;;;;;;4193470;28;20056;-64
2023/01/05 11:15:23;;;;;;;9.20;2.00;;;16.60;84.20;;;;;;4193590;28;20133;-63
2023/01/05 11:18:04;;;;;;;9.48;1.98;;;16.60;84.00;;;;;;4194823;28;20059;-62
2023/01/05 11:21:05;;;;;;;7.07;2.22;;;16.60;83.70;;;;;;4193477;28;20502;-62
2023/01/05 11:23:47;;;;;;;12.35;2.88;;;16.60;83.50;;;;;;4195539;28;20063;-63
2023/01/05 11:26:33;;;;;;;9.10;1.98;;;16.60;83.70;;;;;;4210208;28;20055;-62
2023/01/05 11:29:16;;;;;;;6.03;2.20;;;16.60;83.60;;;;;;4210317;28;20055;-62
2023/01/05 11:32:00;;;;;;;8.18;1.77;;;16.50;83.70;;;;;;4197718;28;20066;-62
2023/01/05 11:34:43;;;;;;;7.78;1.75;;;16.50;83.90;;;;;;4207475;28;20482;-62
2023/01/05 11:37:26;;;;;;;6.10;1.50;;;16.40;83.90;;;;;;4209957;28;20059;-62
2023/01/05 11:40:16;;;;;;;9.27;1.98;;;16.30;84.10;;;;;;4209870;28;20378;-62
2023/01/05 11:42:58;;;;;;;10.13;2.08;;;16.30;84.10;;;;;;4193330;28;20412;-62
2023/01/05 11:45:45;;;;;;;5.50;1.70;;;16.30;84.60;;;;;;4193234;28;20051;-62
2023/01/05 11:48:30;;;;;;;6.30;1.67;;;16.20;84.70;;;;;;4181086;28;20055;-62
2023/01/05 11:51:35;;;;;;;7.75;1.98;;;16.20;84.70;;;;;;4194130;28;20066;-63
2023/01/05 11:54:32;;;;;;;4.00;1.42;;;16.10;84.50;;;;;;4209472;28;20509;-62
2023/01/05 11:57:17;;;;;;;6.22;1.50;;;16.10;84.90;;;;;;4209529;28;20548;-63
2023/01/05 11:59:58;;;;;;;12.35;1.65;;;16.00;86.10;;;;;;4209127;28;20054;-62
2023/01/05 12:03:16;;;;;;;8.35;1.73;;;16.00;85.40;;;;;;4177480;28;20055;-62
2023/01/05 12:06:05;;;;;;;6.15;1.95;;;15.90;85.30;;;;;;4181593;28;20056;-62
2023/01/05 12:08:55;;;;;;;7.45;2.10;;;15.90;85.90;;;;;;4180390;28;20101;-62
2023/01/05 12:11:41;;;;;;;11.80;2.22;;;15.90;85.90;;;;;;4176349;28;20083;-62
2023/01/05 12:14:36;;;;;;;10.02;2.40;;;15.90;85.90;;;;;;4179008;28;20051;-62
2023/01/05 12:17:26;;;;;;;11.27;3.08;;;15.90;86.20;;;;;;4180781;28;20063;-63
2023/01/05 12:20:33;;;;;;;9.85;2.63;;;15.80;86.30;;;;;;4179823;28;20068;-63
2023/01/05 12:23:43;;;;;;;10.55;2.17;;;15.80;86.40;;;;;;4174437;28;20072;-63
2023/01/05 12:26:28;;;;;;;11.10;2.25;;;15.80;86.60;;;;;;4173192;28;20495;-63
2023/01/05 12:29:44;;;;;;;10.82;2.17;;;15.80;87.10;;;;;;4174253;28;20130;-62
2023/01/05 12:33:03;;;;;;;12.48;2.55;;;15.80;87.10;;;;;;4173325;28;20162;-63
2023/01/05 12:36:20;;;;;;;6.97;1.90;;;15.70;87.40;;;;;;4176045;28;20047;-63
2023/01/05 12:39:21;;;;;;;6.63;2.15;;;15.70;87.60;;;;;;4179940;28;20124;-63
2023/01/05 12:42:22;;;;;;;11.35;2.58;;;15.70;87.60;;;;;;4181254;28;21150;-65
2023/01/05 12:45:28;;;;;;;9.50;2.50;;;15.70;87.80;;;;;;4173306;28;20122;-63
2023/01/05 12:48:16;;;;;;;8.57;1.95;;;15.70;87.80;;;;;;4175348;28;20137;-63
2023/01/05 12:51:04;;;;;;;10.60;2.28;;;15.70;88.00;;;;;;4185767;28;20059;-63
2023/01/05 12:53:51;;;;;;;6.68;2.42;;;15.70;87.90;;;;;;4182616;28;20060;-62
2023/01/05 12:56:41;;;;;;;9.25;2.08;;;15.60;87.90;;;;;;4179814;28;20056;-62
2023/01/05 12:59:29;;;;;;;7.85;2.40;;;15.60;87.90;;;;;;4177616;28;20191;-62
2023/01/05 13:02:26;;;;;;;12.65;2.55;;;15.60;88.10;;;;;;4182312;28;20052;-62
2023/01/05 13:05:15;;;;;;;6.13;2.00;;;15.60;87.90;;;;;;4184166;28;20179;-62
2023/01/05 13:08:00;;;;;;;7.57;1.90;;;15.60;88.20;;;;;;4178852;28;20088;-62
2023/01/05 13:10:48;;;;;;;7.85;1.77;;;15.50;88.10;;;;;;4177980;28;20630;-62
2023/01/05 13:13:36;;;;;;;12.48;2.58;;;15.50;88.00;;;;;;4174722;28;20514;-63
2023/01/05 13:16:20;;;;;;;8.52;2.25;;;15.50;88.10;;;;;;4178469;28;20075;-62
2023/01/05 13:19:05;;;;;;;12.00;2.53;;;15.50;88.40;;;;;;4173553;28;20182;-63
2023/01/05 13:21:47;;;;;;;8.25;2.65;;;15.50;88.30;;;;;;4181660;28;20059;-63
2023/01/05 13:24:34;;;;;;;7.70;1.92;;;15.50;88.30;;;;;;4181684;28;21047;-62
2023/01/05 13:27:16;;;;;;;7.97;2.05;;;15.50;88.30;;;;;;4178680;28;20098;-62
2023/01/05 13:30:00;;;;;;;5.45;1.83;;;15.50;88.30;;;;;;4173253;28;20040;-62
2023/01/05 13:33:00;;;;;;;6.70;1.90;;;15.50;88.10;;;;;;4182307;28;20059;-62
2023/01/05 13:36:01;;;;;;;10.00;2.25;;;15.50;88.10;;;;;;4174113;28;20072;-62
2023/01/05 13:39:06;;;;;;;;;;;15.50;88.10;;;;;;4180917;28;20106;-62
2023/01/05 13:42:12;;;;;;;8.35;2.03;;;15.40;88.40;;;;;;4174932;28;20335;-62
2023/01/05 13:45:22;;;;;;;12.43;2.00;;;15.40;88.70;;;;;;4172979;28;20198;-62
2023/01/05 13:48:29;;;;;;;5.82;1.80;;;15.40;88.70;;;;;;4174740;28;20507;-62
2023/01/05 13:51:37;;;;;;;6.00;1.67;;;15.40;88.70;;;;;;4184660;28;20505;-62
2023/01/05 13:54:21;;;;;;;8.45;2.42;;;15.40;88.80;;;;;;4172042;28;20063;-62
2023/01/05 13:57:08;;;;;;;7.88;2.78;;;15.40;89.00;;;;;;4176448;28;20195;-62
2023/01/05 13:59:52;;;;;;;9.25;2.60;;;15.40;89.00;;;;;;4186514;28;20068;-62
2023/01/05 14:03:01;;;;;;;9.98;2.50;;;15.40;88.90;;;;;;4175295;28;20064;-63
2023/01/05 14:05:50;;;;;;;15.73;2.55;;;15.40;89.00;;;;;;4175947;28;20060;-62
2023/01/05 14:08:34;;;;;;;12.90;2.65;;;15.30;88.90;;;;;;4178063;28;20451;-61
2023/01/05 14:11:17;;;;;;;8.32;2.55;;;15.30;88.90;;;;;;4176609;28;20072;-62
2023/01/05 14:13:59;;;;;;;12.02;2.58;;;15.30;88.70;;;;;;4177528;28;20178;-62
2023/01/05 14:17:08;;;;;;;11.32;2.55;;;15.30;88.80;;;;;;4191349;28;20133;-62
2023/01/05 14:19:54;;;;;;;10.05;3.38;;;15.30;88.60;;;;;;4183583;28;20112;-62
2023/01/05 14:22:37;;;;;;;6.70;2.30;;;15.30;89.30;;;;;;4176702;28;20052;-62
2023/01/05 14:25:59;;;;;;;8.50;2.65;;;15.30;89.50;;;;;;4191311;28;20051;-62
2023/01/05 14:28:46;;;;;;;15.73;2.40;;;15.20;89.80;;;;;;4175785;28;20060;-62
2023/01/05 14:31:37;;;;;;;11.60;2.78;;;15.20;90.20;;;;;;4177529;28;20142;-62
2023/01/05 14:34:20;;;;;;;10.50;2.58;;;15.20;90.40;;;;;;4183105;28;20126;-63
2023/01/05 14:37:07;;;;;;;14.07;3.00;;;15.20;90.70;;;;;;4179512;28;20115;-63
2023/01/05 14:39:51;;;;;;;13.32;3.08;;;15.20;90.80;;;;;;4165507;28;20063;-63
2023/01/05 14:42:38;;;;;;;12.55;3.78;;;15.20;90.80;;;;;;4180195;28;20047;-63